CheckWX is a tool to help pilots better visualize weather data.  It is not intended as a substitute for an official pre-flight weather briefing.

12:41:58 UTC

FACT METAR
Cape Town International Airport
Cape Town, South Africa
Current

42 mins ago

FACT 131200Z 33010KT 300V010 CAVOK 25/16 Q1012 NOSIG
Observed
Dec-13 @ 12:00 UTC
Wind
  • 330° at 10 KTS
Visibility
10,000+ meters
Flight Rules
VFR
Cloud Levels
  • Clear skies
Temperature
25°C / 77°F
Dewpoint
16°C / 61°F
Humidity
57%
Altimeter
29.88" Hg
Pressure
1011.92 hPa
Previous

2 hours ago

FACT 131100Z 19010KT 160V220 CAVOK 26/16 Q1012 NOSIG
Observed
Dec-13 @ 11:00 UTC
Wind
  • 190° at 10 KTS
Visibility
10,000+ meters
Flight Rules
VFR
Cloud Levels
  • Clear skies
Temperature
26°C / 79°F
Dewpoint
16°C / 61°F
Humidity
54%
Altimeter
29.88" Hg
Pressure
1011.92 hPa
Previous

3 hours ago

FACT 131000Z 32007KT 270V360 CAVOK 27/16 Q1012 NOSIG
Observed
Dec-13 @ 10:00 UTC
Wind
  • 320° at 7 KTS
Visibility
10,000+ meters
Flight Rules
VFR
Cloud Levels
  • Clear skies
Temperature
27°C / 81°F
Dewpoint
16°C / 61°F
Heat Index
28°C / 82°F
Humidity
51%
Altimeter
29.88" Hg
Pressure
1011.92 hPa